Time,TemperatureF,DewpointF,PressureIn,WindDirection,WindDirectionDegrees,WindSpeedMPH,WindSpeedGustMPH,Humidity,HourlyPrecipIn,Conditions,Clouds,dailyrainin,SolarRadiationWatts/m^2,SoftwareType,DateUTC
2013-02-15 00:02:00,35.0,29.0,-100.00,NNW,338,2.0,3.0,80,0.00,,,0.00,0.000000,,2013-02-15 05:02:00,
2013-02-15 00:32:00,31.0,28.0,-100.00,NE,49,1.0,4.0,90,0.00,,,0.00,0.000000,,2013-02-15 05:32:00,
2013-02-15 00:42:00,31.0,28.0,-100.00,NE,49,1.0,4.0,90,0.00,,,0.00,0.000000,,2013-02-15 05:42:00,
2013-02-15 00:52:00,31.0,28.0,-100.00,NE,49,1.0,4.0,90,0.00,,,0.00,0.000000,,2013-02-15 05:52:00,
2013-02-15 01:02:00,31.0,28.0,-100.00,NE,49,1.0,4.0,90,0.00,,,0.00,0.000000,,2013-02-15 06:02:00,
2013-02-15 01:32:00,30.0,28.0,-100.00,NNW,331,0.0,3.0,93,0.00,,,0.00,0.000000,,2013-02-15 06:32:00,
2013-02-15 01:42:00,30.0,28.0,-100.00,NNW,331,0.0,3.0,93,0.00,,,0.00,0.000000,,2013-02-15 06:42:00,
2013-02-15 01:52:00,30.0,28.0,-100.00,NNW,331,0.0,3.0,93,0.00,,,0.00,0.000000,,2013-02-15 06:52:00,
2013-02-15 02:01:00,30.0,28.0,-100.00,NNW,331,0.0,3.0,93,0.00,,,0.00,0.000000,,2013-02-15 07:01:00,
2013-02-15 02:21:00,31.0,29.0,-100.00,North,354,2.0,4.0,92,0.00,,,0.00,0.000000,,2013-02-15 07:21:00,
2013-02-15 02:32:00,31.0,29.0,-100.00,North,354,2.0,4.0,92,0.00,,,0.00,0.000000,,2013-02-15 07:32:00,
2013-02-15 02:42:00,31.0,29.0,-100.00,North,354,2.0,4.0,92,0.00,,,0.00,0.000000,,2013-02-15 07:42:00,
2013-02-15 02:52:00,31.0,29.0,-100.00,North,354,2.0,4.0,92,0.00,,,0.00,0.000000,,2013-02-15 07:52:00,
2013-02-15 03:01:00,31.0,29.0,-100.00,North,354,2.0,4.0,92,0.00,,,0.00,0.000000,,2013-02-15 08:01:00,
2013-02-15 03:21:00,29.0,27.0,-100.00,South,171,1.0,2.0,92,0.00,,,0.00,0.000000,,2013-02-15 08:21:00,
2013-02-15 03:32:00,29.0,27.0,-100.00,South,171,1.0,2.0,92,0.00,,,0.00,0.000000,,2013-02-15 08:32:00,
2013-02-15 03:42:00,29.0,27.0,-100.00,South,171,1.0,2.0,92,0.00,,,0.00,0.000000,,2013-02-15 08:42:00,
2013-02-15 03:53:00,29.0,27.0,-100.00,South,171,1.0,2.0,92,0.00,,,0.00,0.000000,,2013-02-15 08:53:00,
2013-02-15 04:02:00,29.0,27.0,-100.00,South,171,1.0,2.0,92,0.00,,,0.00,0.000000,,2013-02-15 09:02:00,
2013-02-15 04:22:00,28.0,27.0,-100.00,WNW,289,0.0,2.0,97,0.00,,,0.00,0.000000,,2013-02-15 09:22:00,
2013-02-15 04:32:00,28.0,27.0,-100.00,WNW,289,0.0,2.0,97,0.00,,,0.00,0.000000,,2013-02-15 09:32:00,
2013-02-15 04:42:00,28.0,27.0,-100.00,WNW,289,0.0,2.0,97,0.00,,,0.00,0.000000,,2013-02-15 09:42:00,
2013-02-15 04:52:00,28.0,27.0,-100.00,WNW,289,0.0,2.0,97,0.00,,,0.00,0.000000,,2013-02-15 09:52:00,
2013-02-15 05:01:00,28.0,27.0,-100.00,WNW,289,0.0,2.0,97,0.00,,,0.00,0.000000,,2013-02-15 10:01:00,
2013-02-15 05:32:00,27.0,27.0,-100.00,East,84,0.0,1.0,98,0.00,,,0.00,0.000000,,2013-02-15 10:32:00,
2013-02-15 05:42:00,27.0,27.0,-100.00,East,84,0.0,1.0,98,0.00,,,0.00,0.000000,,2013-02-15 10:42:00,
2013-02-15 05:52:00,27.0,27.0,-100.00,East,84,0.0,1.0,98,0.00,,,0.00,0.000000,,2013-02-15 10:52:00,
2013-02-15 06:01:00,27.0,27.0,-100.00,East,84,0.0,1.0,98,0.00,,,0.00,0.000000,,2013-02-15 11:01:00,
2013-02-15 06:32:00,27.0,27.0,-100.00,NW,317,1.0,3.0,98,0.00,,,0.00,0.000000,,2013-02-15 11:32:00,
2013-02-15 06:42:00,27.0,27.0,-100.00,NW,317,1.0,3.0,98,0.00,,,0.00,0.000000,,2013-02-15 11:42:00,
2013-02-15 06:52:00,27.0,27.0,-100.00,NW,317,1.0,3.0,98,0.00,,,0.00,0.000000,,2013-02-15 11:52:00,
2013-02-15 07:02:00,27.0,27.0,-100.00,NW,317,1.0,3.0,98,0.00,,,0.00,0.000000,,2013-02-15 12:02:00,
2013-02-15 07:22:00,27.0,26.0,-100.00,SSE,168,0.0,2.0,97,0.00,,,0.00,0.000000,,2013-02-15 12:22:00,
2013-02-15 07:32:00,27.0,26.0,-100.00,SSE,168,0.0,2.0,97,0.00,,,0.00,0.000000,,2013-02-15 12:32:00,
2013-02-15 07:42:00,27.0,26.0,-100.00,SSE,168,0.0,2.0,97,0.00,,,0.00,0.000000,,2013-02-15 12:42:00,
2013-02-15 07:52:00,27.0,26.0,-100.00,SSE,168,0.0,2.0,97,0.00,,,0.00,0.000000,,2013-02-15 12:52:00,
2013-02-15 08:02:00,27.0,26.0,-100.00,SSE,168,0.0,2.0,97,0.00,,,0.00,0.000000,,2013-02-15 13:02:00,
2013-02-15 08:22:00,28.0,27.0,-100.00,South,175,0.0,2.0,97,0.00,,,0.00,19.000000,,2013-02-15 13:22:00,
2013-02-15 08:32:00,28.0,27.0,-100.00,South,175,0.0,2.0,97,0.00,,,0.00,19.000000,,2013-02-15 13:32:00,
2013-02-15 08:42:00,28.0,27.0,-100.00,South,175,0.0,2.0,97,0.00,,,0.00,19.000000,,2013-02-15 13:42:00,
2013-02-15 08:52:00,28.0,27.0,-100.00,South,175,0.0,2.0,97,0.00,,,0.00,19.000000,,2013-02-15 13:52:00,
2013-02-15 09:01:00,28.0,27.0,-100.00,South,175,0.0,2.0,97,0.00,,,0.00,19.000000,,2013-02-15 14:01:00,
2013-02-15 09:32:00,38.0,37.0,-100.00,South,190,2.0,3.0,98,0.00,,,0.00,45.000000,,2013-02-15 14:32:00,
2013-02-15 09:42:00,38.0,37.0,-100.00,South,190,2.0,3.0,98,0.00,,,0.00,45.000000,,2013-02-15 14:42:00,
2013-02-15 09:52:00,38.0,37.0,-100.00,South,190,2.0,3.0,98,0.00,,,0.00,45.000000,,2013-02-15 14:52:00,
2013-02-15 10:02:00,38.0,37.0,-100.00,South,190,2.0,3.0,98,0.00,,,0.00,45.000000,,2013-02-15 15:02:00,
2013-02-15 10:32:00,49.0,38.0,-100.00,SSW,206,3.0,5.0,65,0.00,,,0.00,349.000000,,2013-02-15 15:32:00,
2013-02-15 11:32:00,54.0,35.0,-100.00,SW,223,7.0,10.0,49,0.00,,,0.00,623.000000,,2013-02-15 16:32:00,
2013-02-15 11:43:00,54.0,35.0,-100.00,SW,223,7.0,10.0,49,0.00,,,0.00,623.000000,,2013-02-15 16:43:00,
2013-02-15 11:52:00,54.0,35.0,-100.00,SW,223,7.0,10.0,49,0.00,,,0.00,623.000000,,2013-02-15 16:52:00,
2013-02-15 12:01:00,54.0,35.0,-100.00,SW,223,7.0,10.0,49,0.00,,,0.00,623.000000,,2013-02-15 17:01:00,
2013-02-15 12:32:00,57.0,33.0,-100.00,SSW,210,9.0,16.0,40,0.00,,,0.00,739.000000,,2013-02-15 17:32:00,
2013-02-15 12:42:00,57.0,33.0,-100.00,SSW,210,9.0,16.0,40,0.00,,,0.00,739.000000,,2013-02-15 17:42:00,
2013-02-15 12:52:00,57.0,33.0,-100.00,SSW,210,9.0,16.0,40,0.00,,,0.00,739.000000,,2013-02-15 17:52:00,
2013-02-15 13:02:00,57.0,33.0,-100.00,SSW,210,9.0,16.0,40,0.00,,,0.00,739.000000,,2013-02-15 18:02:00,
2013-02-15 13:32:00,57.0,28.0,-100.00,SW,215,8.0,17.0,33,0.00,,,0.00,747.000000,,2013-02-15 18:32:00,
2013-02-15 13:42:00,57.0,28.0,-100.00,SW,215,8.0,17.0,33,0.00,,,0.00,747.000000,,2013-02-15 18:42:00,
2013-02-15 13:53:00,57.0,28.0,-100.00,SW,215,8.0,17.0,33,0.00,,,0.00,747.000000,,2013-02-15 18:53:00,
2013-02-15 14:02:00,57.0,28.0,-100.00,SW,215,8.0,17.0,33,0.00,,,0.00,747.000000,,2013-02-15 19:02:00,
2013-02-15 14:32:00,59.0,31.0,-100.00,SSW,206,9.0,18.0,34,0.00,,,0.00,720.000000,,2013-02-15 19:32:00,
2013-02-15 14:42:00,59.0,31.0,-100.00,SSW,206,9.0,18.0,34,0.00,,,0.00,720.000000,,2013-02-15 19:42:00,
2013-02-15 14:52:00,59.0,31.0,-100.00,SSW,206,9.0,18.0,34,0.00,,,0.00,720.000000,,2013-02-15 19:52:00,
2013-02-15 15:01:00,59.0,31.0,-100.00,SSW,206,9.0,18.0,34,0.00,,,0.00,720.000000,,2013-02-15 20:01:00,
2013-02-15 15:22:00,60.0,29.0,-100.00,South,185,9.0,15.0,31,0.00,,,0.00,653.000000,,2013-02-15 20:22:00,
2013-02-15 15:32:00,60.0,29.0,-100.00,South,185,9.0,15.0,31,0.00,,,0.00,653.000000,,2013-02-15 20:32:00,
2013-02-15 15:42:00,60.0,29.0,-100.00,South,185,9.0,15.0,31,0.00,,,0.00,653.000000,,2013-02-15 20:42:00,
2013-02-15 15:52:00,60.0,29.0,-100.00,South,185,9.0,15.0,31,0.00,,,0.00,653.000000,,2013-02-15 20:52:00,
2013-02-15 16:02:00,60.0,29.0,-100.00,South,185,9.0,15.0,31,0.00,,,0.00,653.000000,,2013-02-15 21:02:00,
2013-02-15 16:32:00,60.0,28.0,-100.00,SSW,204,8.0,15.0,29,0.00,,,0.00,498.000000,,2013-02-15 21:32:00,
2013-02-15 16:42:00,60.0,28.0,-100.00,SSW,204,8.0,15.0,29,0.00,,,0.00,498.000000,,2013-02-15 21:42:00,
2013-02-15 16:52:00,60.0,28.0,-100.00,SSW,204,8.0,15.0,29,0.00,,,0.00,498.000000,,2013-02-15 21:52:00,
2013-02-15 17:02:00,60.0,28.0,-100.00,SSW,204,8.0,15.0,29,0.00,,,0.00,498.000000,,2013-02-15 22:02:00,
2013-02-15 17:32:00,57.0,28.0,-100.00,SW,218,6.0,16.0,33,0.00,,,0.00,183.000000,,2013-02-15 22:32:00,
2013-02-15 17:42:00,57.0,28.0,-100.00,SW,218,6.0,16.0,33,0.00,,,0.00,183.000000,,2013-02-15 22:42:00,
2013-02-15 17:52:00,57.0,28.0,-100.00,SW,218,6.0,16.0,33,0.00,,,0.00,183.000000,,2013-02-15 22:52:00,
2013-02-15 18:02:00,57.0,28.0,-100.00,SW,218,6.0,16.0,33,0.00,,,0.00,183.000000,,2013-02-15 23:02:00,
2013-02-15 18:32:00,55.0,30.0,-100.00,WSW,257,3.0,7.0,38,0.00,,,0.00,12.000000,,2013-02-15 23:32:00,
2013-02-15 18:42:00,55.0,30.0,-100.00,WSW,257,3.0,7.0,38,0.00,,,0.00,12.000000,,2013-02-15 23:42:00,
2013-02-15 18:52:00,55.0,30.0,-100.00,WSW,257,3.0,7.0,38,0.00,,,0.00,12.000000,,2013-02-15 23:52:00,
2013-02-15 19:02:00,55.0,30.0,-100.00,WSW,257,3.0,7.0,38,0.00,,,0.00,12.000000,,2013-02-16 00:02:00,
2013-02-15 19:22:00,53.0,32.0,-100.00,NNW,339,5.0,11.0,45,0.00,,,0.00,0.000000,,2013-02-16 00:22:00,
2013-02-15 19:32:00,53.0,32.0,-100.00,NNW,339,5.0,11.0,45,0.00,,,0.00,0.000000,,2013-02-16 00:32:00,
2013-02-15 19:42:00,53.0,32.0,-100.00,NNW,339,5.0,11.0,45,0.00,,,0.00,0.000000,,2013-02-16 00:42:00,
2013-02-15 19:52:00,53.0,32.0,-100.00,NNW,339,5.0,11.0,45,0.00,,,0.00,0.000000,,2013-02-16 00:52:00,
2013-02-15 20:02:00,53.0,32.0,-100.00,NNW,339,5.0,11.0,45,0.00,,,0.00,0.000000,,2013-02-16 01:02:00,
2013-02-15 20:32:00,48.0,34.0,-100.00,NNW,334,8.0,16.0,58,0.00,,,0.00,0.000000,,2013-02-16 01:32:00,
2013-02-15 20:42:00,48.0,34.0,-100.00,NNW,334,8.0,16.0,58,0.00,,,0.00,0.000000,,2013-02-16 01:42:00,
2013-02-15 20:52:00,48.0,34.0,-100.00,NNW,334,8.0,16.0,58,0.00,,,0.00,0.000000,,2013-02-16 01:52:00,
2013-02-15 21:01:00,48.0,34.0,-100.00,NNW,334,8.0,16.0,58,0.00,,,0.00,0.000000,,2013-02-16 02:01:00,
2013-02-15 21:22:00,47.0,34.0,-100.00,NNW,338,8.0,17.0,61,0.00,,,0.00,0.000000,,2013-02-16 02:22:00,
2013-02-15 21:32:00,47.0,34.0,-100.00,NNW,338,8.0,17.0,61,0.00,,,0.00,0.000000,,2013-02-16 02:32:00,
2013-02-15 21:42:00,47.0,34.0,-100.00,NNW,338,8.0,17.0,61,0.00,,,0.00,0.000000,,2013-02-16 02:42:00,
2013-02-15 21:52:00,47.0,34.0,-100.00,NNW,338,8.0,17.0,61,0.00,,,0.00,0.000000,,2013-02-16 02:52:00,
2013-02-15 22:02:00,47.0,34.0,-100.00,NNW,338,8.0,17.0,61,0.00,,,0.00,0.000000,,2013-02-16 03:02:00,
2013-02-15 22:32:00,45.0,35.0,-100.00,NNW,347,5.0,12.0,68,0.00,,,0.00,0.000000,,2013-02-16 03:32:00,
2013-02-15 22:42:00,45.0,35.0,-100.00,NNW,347,5.0,12.0,68,0.00,,,0.00,0.000000,,2013-02-16 03:42:00,
2013-02-15 22:52:00,45.0,35.0,-100.00,NNW,347,5.0,12.0,68,0.00,,,0.00,0.000000,,2013-02-16 03:52:00,
2013-02-15 23:01:00,45.0,35.0,-100.00,NNW,347,5.0,12.0,68,0.00,,,0.00,0.000000,,2013-02-16 04:01:00,
2013-02-15 23:32:00,44.0,33.0,-100.00,North,354,3.0,10.0,64,0.00,,,0.00,0.000000,,2013-02-16 04:32:00,
2013-02-15 23:42:00,44.0,33.0,-100.00,North,354,3.0,10.0,64,0.00,,,0.00,0.000000,,2013-02-16 04:42:00,
2013-02-15 23:52:00,44.0,33.0,-100.00,North,354,3.0,10.0,64,0.00,,,0.00,0.000000,,2013-02-16 04:52:00,